sensor_id;sensor_type;location;lat;lon;timestamp;P1;durP1;ratioP1;P2;durP2;ratioP2
9138;SDS011;4604;48.616;9.548;2023-11-21T00:01:40;4.27;;;1.97;;
9138;SDS011;4604;48.616;9.548;2023-11-21T00:04:07;3.80;;;1.87;;
9138;SDS011;4604;48.616;9.548;2023-11-21T00:06:33;2.23;;;1.60;;
9138;SDS011;4604;48.616;9.548;2023-11-21T00:09:00;2.97;;;1.50;;
9138;SDS011;4604;48.616;9.548;2023-11-21T00:11:27;3.40;;;1.43;;
9138;SDS011;4604;48.616;9.548;2023-11-21T00:13:54;2.60;;;1.53;;
9138;SDS011;4604;48.616;9.548;2023-11-21T00:16:22;2.73;;;1.70;;
9138;SDS011;4604;48.616;9.548;2023-11-21T00:18:50;2.87;;;2.20;;
9138;SDS011;4604;48.616;9.548;2023-11-21T00:21:17;3.97;;;2.00;;
9138;SDS011;4604;48.616;9.548;2023-11-21T00:23:43;2.53;;;1.40;;
9138;SDS011;4604;48.616;9.548;2023-11-21T00:26:10;2.07;;;1.47;;
9138;SDS011;4604;48.616;9.548;2023-11-21T00:28:36;4.03;;;1.40;;
9138;SDS011;4604;48.616;9.548;2023-11-21T00:31:03;4.13;;;1.20;;
9138;SDS011;4604;48.616;9.548;2023-11-21T00:33:31;2.60;;;1.60;;
9138;SDS011;4604;48.616;9.548;2023-11-21T00:35:58;1.37;;;1.27;;
9138;SDS011;4604;48.616;9.548;2023-11-21T00:38:25;2.20;;;1.43;;
9138;SDS011;4604;48.616;9.548;2023-11-21T00:40:52;1.80;;;1.37;;
9138;SDS011;4604;48.616;9.548;2023-11-21T00:43:21;2.93;;;1.43;;
9138;SDS011;4604;48.616;9.548;2023-11-21T00:45:50;2.73;;;1.57;;
9138;SDS011;4604;48.616;9.548;2023-11-21T00:48:17;3.60;;;1.60;;
9138;SDS011;4604;48.616;9.548;2023-11-21T00:50:45;1.17;;;1.03;;
9138;SDS011;4604;48.616;9.548;2023-11-21T00:53:12;1.23;;;1.10;;
9138;SDS011;4604;48.616;9.548;2023-11-21T00:55:39;1.23;;;0.90;;
9138;SDS011;4604;48.616;9.548;2023-11-21T00:58:06;1.40;;;1.10;;
9138;SDS011;4604;48.616;9.548;2023-11-21T01:00:33;2.00;;;1.00;;
9138;SDS011;4604;48.616;9.548;2023-11-21T01:03:00;0.57;;;0.57;;
9138;SDS011;4604;48.616;9.548;2023-11-21T01:05:27;0.77;;;0.77;;
9138;SDS011;4604;48.616;9.548;2023-11-21T01:07:56;1.67;;;1.20;;
9138;SDS011;4604;48.616;9.548;2023-11-21T01:10:22;2.87;;;1.10;;
9138;SDS011;4604;48.616;9.548;2023-11-21T01:12:50;2.10;;;1.10;;
9138;SDS011;4604;48.616;9.548;2023-11-21T01:15:16;1.80;;;0.60;;
9138;SDS011;4604;48.616;9.548;2023-11-21T01:17:43;0.60;;;0.60;;
9138;SDS011;4604;48.616;9.548;2023-11-21T01:20:10;1.87;;;0.70;;
9138;SDS011;4604;48.616;9.548;2023-11-21T01:22:37;0.80;;;0.80;;
9138;SDS011;4604;48.616;9.548;2023-11-21T01:25:06;2.63;;;1.00;;
9138;SDS011;4604;48.616;9.548;2023-11-21T01:27:33;2.30;;;1.00;;
9138;SDS011;4604;48.616;9.548;2023-11-21T01:30:00;1.13;;;0.80;;
9138;SDS011;4604;48.616;9.548;2023-11-21T01:32:27;1.20;;;0.80;;
9138;SDS011;4604;48.616;9.548;2023-11-21T01:34:54;2.23;;;0.73;;
9138;SDS011;4604;48.616;9.548;2023-11-21T01:37:21;1.93;;;0.83;;
9138;SDS011;4604;48.616;9.548;2023-11-21T01:39:48;0.97;;;0.93;;
9138;SDS011;4604;48.616;9.548;2023-11-21T01:42:15;2.33;;;0.70;;
9138;SDS011;4604;48.616;9.548;2023-11-21T01:44:42;1.17;;;1.00;;
9138;SDS011;4604;48.616;9.548;2023-11-21T01:47:08;1.77;;;0.60;;
9138;SDS011;4604;48.616;9.548;2023-11-21T01:49:35;1.10;;;0.80;;
9138;SDS011;4604;48.616;9.548;2023-11-21T01:52:03;2.27;;;0.80;;
9138;SDS011;4604;48.616;9.548;2023-11-21T01:54:30;0.97;;;0.80;;
9138;SDS011;4604;48.616;9.548;2023-11-21T01:56:57;2.37;;;1.03;;
9138;SDS011;4604;48.616;9.548;2023-11-21T01:59:29;2.17;;;1.10;;
9138;SDS011;4604;48.616;9.548;2023-11-21T02:02:01;1.63;;;0.87;;
9138;SDS011;4604;48.616;9.548;2023-11-21T02:04:30;0.73;;;0.70;;
9138;SDS011;4604;48.616;9.548;2023-11-21T02:06:57;1.13;;;0.90;;
9138;SDS011;4604;48.616;9.548;2023-11-21T02:09:24;1.47;;;1.10;;
9138;SDS011;4604;48.616;9.548;2023-11-21T02:11:52;1.73;;;0.80;;
9138;SDS011;4604;48.616;9.548;2023-11-21T02:14:19;2.93;;;1.00;;
9138;SDS011;4604;48.616;9.548;2023-11-21T02:16:49;7.43;;;1.27;;
9138;SDS011;4604;48.616;9.548;2023-11-21T02:19:17;1.50;;;1.07;;
9138;SDS011;4604;48.616;9.548;2023-11-21T02:21:47;1.67;;;1.10;;
9138;SDS011;4604;48.616;9.548;2023-11-21T02:24:18;1.20;;;0.70;;
9138;SDS011;4604;48.616;9.548;2023-11-21T02:26:45;3.67;;;1.30;;
9138;SDS011;4604;48.616;9.548;2023-11-21T02:29:12;1.10;;;0.93;;
9138;SDS011;4604;48.616;9.548;2023-11-21T02:31:38;2.50;;;1.23;;
9138;SDS011;4604;48.616;9.548;2023-11-21T02:34:12;2.73;;;1.20;;
9138;SDS011;4604;48.616;9.548;2023-11-21T02:36:39;3.07;;;1.00;;
9138;SDS011;4604;48.616;9.548;2023-11-21T02:39:07;2.87;;;1.00;;
9138;SDS011;4604;48.616;9.548;2023-11-21T02:41:35;0.63;;;0.63;;
9138;SDS011;4604;48.616;9.548;2023-11-21T02:44:03;0.77;;;0.73;;
9138;SDS011;4604;48.616;9.548;2023-11-21T02:46:31;1.67;;;1.23;;
9138;SDS011;4604;48.616;9.548;2023-11-21T02:48:58;2.00;;;0.97;;
9138;SDS011;4604;48.616;9.548;2023-11-21T02:51:25;1.50;;;0.87;;
9138;SDS011;4604;48.616;9.548;2023-11-21T02:53:52;2.00;;;0.97;;
9138;SDS011;4604;48.616;9.548;2023-11-21T02:56:19;2.33;;;0.93;;
9138;SDS011;4604;48.616;9.548;2023-11-21T02:58:47;1.83;;;1.00;;
9138;SDS011;4604;48.616;9.548;2023-11-21T03:01:14;3.40;;;0.90;;
9138;SDS011;4604;48.616;9.548;2023-11-21T03:03:40;2.33;;;0.73;;
9138;SDS011;4604;48.616;9.548;2023-11-21T03:06:07;2.13;;;1.00;;
9138;SDS011;4604;48.616;9.548;2023-11-21T03:08:34;0.63;;;0.63;;
9138;SDS011;4604;48.616;9.548;2023-11-21T03:11:01;1.73;;;1.23;;
9138;SDS011;4604;48.616;9.548;2023-11-21T03:13:28;1.17;;;1.03;;
9138;SDS011;4604;48.616;9.548;2023-11-21T03:15:58;2.40;;;1.03;;
9138;SDS011;4604;48.616;9.548;2023-11-21T03:18:24;1.10;;;0.93;;
9138;SDS011;4604;48.616;9.548;2023-11-21T03:20:51;2.80;;;1.03;;
9138;SDS011;4604;48.616;9.548;2023-11-21T03:23:18;1.27;;;1.00;;
9138;SDS011;4604;48.616;9.548;2023-11-21T03:25:45;0.80;;;0.80;;
9138;SDS011;4604;48.616;9.548;2023-11-21T03:28:12;1.90;;;0.70;;
9138;SDS011;4604;48.616;9.548;2023-11-21T03:30:38;2.20;;;0.97;;
9138;SDS011;4604;48.616;9.548;2023-11-21T03:33:06;2.40;;;1.00;;
9138;SDS011;4604;48.616;9.548;2023-11-21T03:35:34;2.30;;;0.87;;
9138;SDS011;4604;48.616;9.548;2023-11-21T03:38:00;1.77;;;0.83;;
9138;SDS011;4604;48.616;9.548;2023-11-21T03:40:27;0.70;;;0.70;;
9138;SDS011;4604;48.616;9.548;2023-11-21T03:42:53;1.10;;;0.97;;
9138;SDS011;4604;48.616;9.548;2023-11-21T03:45:20;2.13;;;0.80;;
9138;SDS011;4604;48.616;9.548;2023-11-21T03:47:47;2.60;;;0.87;;
9138;SDS011;4604;48.616;9.548;2023-11-21T03:50:15;1.67;;;1.03;;
9138;SDS011;4604;48.616;9.548;2023-11-21T03:52:41;1.73;;;0.80;;
9138;SDS011;4604;48.616;9.548;2023-11-21T03:55:08;2.00;;;1.20;;
9138;SDS011;4604;48.616;9.548;2023-11-21T03:57:35;1.30;;;0.60;;
9138;SDS011;4604;48.616;9.548;2023-11-21T04:00:02;1.57;;;0.80;;
9138;SDS011;4604;48.616;9.548;2023-11-21T04:02:33;1.53;;;0.73;;
9138;SDS011;4604;48.616;9.548;2023-11-21T04:05:00;1.27;;;0.60;;
9138;SDS011;4604;48.616;9.548;2023-11-21T04:07:28;3.23;;;0.80;;
9138;SDS011;4604;48.616;9.548;2023-11-21T04:09:55;0.63;;;0.63;;
9138;SDS011;4604;48.616;9.548;2023-11-21T04:12:21;0.40;;;0.40;;
9138;SDS011;4604;48.616;9.548;2023-11-21T04:14:48;0.63;;;0.63;;
9138;SDS011;4604;48.616;9.548;2023-11-21T04:17:17;2.13;;;0.77;;
9138;SDS011;4604;48.616;9.548;2023-11-21T04:19:44;1.03;;;0.70;;
9138;SDS011;4604;48.616;9.548;2023-11-21T04:22:11;1.00;;;0.83;;
9138;SDS011;4604;48.616;9.548;2023-11-21T04:24:39;0.57;;;0.50;;
9138;SDS011;4604;48.616;9.548;2023-11-21T04:27:05;1.30;;;0.60;;
9138;SDS011;4604;48.616;9.548;2023-11-21T04:29:33;1.50;;;0.63;;
9138;SDS011;4604;48.616;9.548;2023-11-21T04:32:00;0.73;;;0.50;;
9138;SDS011;4604;48.616;9.548;2023-11-21T04:34:27;1.17;;;0.80;;
9138;SDS011;4604;48.616;9.548;2023-11-21T04:36:55;1.37;;;0.77;;
9138;SDS011;4604;48.616;9.548;2023-11-21T04:39:22;0.60;;;0.60;;
9138;SDS011;4604;48.616;9.548;2023-11-21T04:41:50;0.77;;;0.60;;
9138;SDS011;4604;48.616;9.548;2023-11-21T04:44:17;0.70;;;0.70;;
9138;SDS011;4604;48.616;9.548;2023-11-21T04:46:43;1.20;;;0.73;;
9138;SDS011;4604;48.616;9.548;2023-11-21T04:49:10;0.70;;;0.70;;
9138;SDS011;4604;48.616;9.548;2023-11-21T04:51:37;2.93;;;0.80;;
9138;SDS011;4604;48.616;9.548;2023-11-21T04:54:04;0.93;;;0.70;;
9138;SDS011;4604;48.616;9.548;2023-11-21T04:56:30;0.90;;;0.90;;
9138;SDS011;4604;48.616;9.548;2023-11-21T04:58:58;1.20;;;1.10;;
9138;SDS011;4604;48.616;9.548;2023-11-21T05:01:25;0.90;;;0.87;;
9138;SDS011;4604;48.616;9.548;2023-11-21T05:03:52;1.00;;;1.00;;
9138;SDS011;4604;48.616;9.548;2023-11-21T05:06:19;1.57;;;1.10;;
9138;SDS011;4604;48.616;9.548;2023-11-21T05:08:45;1.47;;;1.00;;
9138;SDS011;4604;48.616;9.548;2023-11-21T05:11:12;1.47;;;1.23;;
9138;SDS011;4604;48.616;9.548;2023-11-21T05:13:49;0.93;;;0.70;;
9138;SDS011;4604;48.616;9.548;2023-11-21T05:16:17;0.60;;;0.60;;
9138;SDS011;4604;48.616;9.548;2023-11-21T05:18:44;0.53;;;0.50;;
9138;SDS011;4604;48.616;9.548;2023-11-21T05:21:11;2.20;;;1.37;;
9138;SDS011;4604;48.616;9.548;2023-11-21T05:23:38;0.83;;;0.80;;
9138;SDS011;4604;48.616;9.548;2023-11-21T05:26:05;3.13;;;0.90;;
9138;SDS011;4604;48.616;9.548;2023-11-21T05:28:32;1.40;;;0.67;;
9138;SDS011;4604;48.616;9.548;2023-11-21T05:30:59;0.90;;;0.90;;
9138;SDS011;4604;48.616;9.548;2023-11-21T05:33:28;2.80;;;1.00;;
9138;SDS011;4604;48.616;9.548;2023-11-21T05:35:54;2.23;;;1.43;;
9138;SDS011;4604;48.616;9.548;2023-11-21T05:38:21;1.10;;;1.00;;
9138;SDS011;4604;48.616;9.548;2023-11-21T05:40:47;2.17;;;1.20;;
9138;SDS011;4604;48.616;9.548;2023-11-21T05:43:14;2.17;;;1.17;;
9138;SDS011;4604;48.616;9.548;2023-11-21T05:45:41;0.90;;;0.90;;
9138;SDS011;4604;48.616;9.548;2023-11-21T05:48:08;1.97;;;1.57;;
9138;SDS011;4604;48.616;9.548;2023-11-21T05:50:36;1.70;;;1.50;;
9138;SDS011;4604;48.616;9.548;2023-11-21T05:53:04;2.50;;;1.70;;
9138;SDS011;4604;48.616;9.548;2023-11-21T05:55:30;1.20;;;1.00;;
9138;SDS011;4604;48.616;9.548;2023-11-21T05:57:57;1.10;;;1.00;;
9138;SDS011;4604;48.616;9.548;2023-11-21T06:00:24;1.30;;;1.20;;
9138;SDS011;4604;48.616;9.548;2023-11-21T06:02:52;2.13;;;1.00;;
9138;SDS011;4604;48.616;9.548;2023-11-21T06:05:24;1.70;;;1.00;;
9138;SDS011;4604;48.616;9.548;2023-11-21T06:07:53;2.03;;;1.20;;
9138;SDS011;4604;48.616;9.548;2023-11-21T06:10:21;1.53;;;1.00;;
9138;SDS011;4604;48.616;9.548;2023-11-21T06:12:48;1.93;;;1.47;;
9138;SDS011;4604;48.616;9.548;2023-11-21T06:15:16;3.00;;;2.00;;
9138;SDS011;4604;48.616;9.548;2023-11-21T06:17:47;3.73;;;1.93;;
9138;SDS011;4604;48.616;9.548;2023-11-21T06:20:17;2.37;;;1.60;;
9138;SDS011;4604;48.616;9.548;2023-11-21T06:22:48;1.43;;;1.10;;
9138;SDS011;4604;48.616;9.548;2023-11-21T06:25:17;1.63;;;1.13;;
9138;SDS011;4604;48.616;9.548;2023-11-21T06:27:44;1.83;;;0.90;;
9138;SDS011;4604;48.616;9.548;2023-11-21T06:30:13;0.70;;;0.70;;
9138;SDS011;4604;48.616;9.548;2023-11-21T06:32:45;1.60;;;1.17;;
9138;SDS011;4604;48.616;9.548;2023-11-21T06:35:12;0.70;;;0.70;;
9138;SDS011;4604;48.616;9.548;2023-11-21T06:37:40;1.03;;;0.70;;
9138;SDS011;4604;48.616;9.548;2023-11-21T06:40:15;0.90;;;0.60;;
9138;SDS011;4604;48.616;9.548;2023-11-21T06:42:49;1.03;;;0.90;;
9138;SDS011;4604;48.616;9.548;2023-11-21T06:45:19;1.07;;;0.80;;
9138;SDS011;4604;48.616;9.548;2023-11-21T06:47:46;1.03;;;0.90;;
9138;SDS011;4604;48.616;9.548;2023-11-21T06:50:13;1.10;;;1.00;;
9138;SDS011;4604;48.616;9.548;2023-11-21T06:52:40;2.33;;;1.03;;
9138;SDS011;4604;48.616;9.548;2023-11-21T06:55:08;0.80;;;0.80;;
9138;SDS011;4604;48.616;9.548;2023-11-21T06:57:56;1.80;;;1.50;;
9138;SDS011;4604;48.616;9.548;2023-11-21T07:00:25;2.10;;;0.90;;
9138;SDS011;4604;48.616;9.548;2023-11-21T07:02:53;1.33;;;1.10;;
9138;SDS011;4604;48.616;9.548;2023-11-21T07:05:20;1.30;;;1.20;;
9138;SDS011;4604;48.616;9.548;2023-11-21T07:07:47;1.40;;;1.10;;
9138;SDS011;4604;48.616;9.548;2023-11-21T07:10:14;1.23;;;0.83;;
9138;SDS011;4604;48.616;9.548;2023-11-21T07:12:42;3.40;;;0.80;;
9138;SDS011;4604;48.616;9.548;2023-11-21T07:15:10;1.53;;;0.80;;
9138;SDS011;4604;48.616;9.548;2023-11-21T07:17:39;1.40;;;0.80;;
9138;SDS011;4604;48.616;9.548;2023-11-21T07:20:26;1.77;;;1.10;;
9138;SDS011;4604;48.616;9.548;2023-11-21T07:23:22;2.73;;;1.00;;
9138;SDS011;4604;48.616;9.548;2023-11-21T07:26:05;3.03;;;1.00;;
9138;SDS011;4604;48.616;9.548;2023-11-21T07:28:34;2.30;;;0.80;;
9138;SDS011;4604;48.616;9.548;2023-11-21T07:31:09;2.73;;;0.87;;
9138;SDS011;4604;48.616;9.548;2023-11-21T07:33:37;1.20;;;1.13;;
9138;SDS011;4604;48.616;9.548;2023-11-21T07:36:04;11.73;;;1.40;;
9138;SDS011;4604;48.616;9.548;2023-11-21T07:38:31;2.90;;;1.10;;
9138;SDS011;4604;48.616;9.548;2023-11-21T07:40:58;7.03;;;1.60;;
9138;SDS011;4604;48.616;9.548;2023-11-21T07:43:26;1.97;;;0.90;;
9138;SDS011;4604;48.616;9.548;2023-11-21T07:45:58;0.63;;;0.63;;
9138;SDS011;4604;48.616;9.548;2023-11-21T07:48:26;1.40;;;1.10;;
9138;SDS011;4604;48.616;9.548;2023-11-21T07:50:53;1.90;;;1.10;;
9138;SDS011;4604;48.616;9.548;2023-11-21T07:53:19;1.47;;;1.03;;
9138;SDS011;4604;48.616;9.548;2023-11-21T07:55:47;0.57;;;0.53;;
9138;SDS011;4604;48.616;9.548;2023-11-21T07:58:13;2.77;;;0.90;;
9138;SDS011;4604;48.616;9.548;2023-11-21T08:00:40;5.03;;;0.90;;
9138;SDS011;4604;48.616;9.548;2023-11-21T08:03:07;4.90;;;1.00;;
9138;SDS011;4604;48.616;9.548;2023-11-21T08:05:41;2.63;;;1.17;;
9138;SDS011;4604;48.616;9.548;2023-11-21T08:08:08;1.30;;;1.10;;
9138;SDS011;4604;48.616;9.548;2023-11-21T08:10:34;0.70;;;0.70;;
9138;SDS011;4604;48.616;9.548;2023-11-21T08:13:01;0.90;;;0.73;;
9138;SDS011;4604;48.616;9.548;2023-11-21T08:15:28;3.50;;;0.90;;
9138;SDS011;4604;48.616;9.548;2023-11-21T08:17:57;4.83;;;0.80;;
9138;SDS011;4604;48.616;9.548;2023-11-21T08:20:23;1.10;;;0.97;;
9138;SDS011;4604;48.616;9.548;2023-11-21T08:22:51;0.93;;;0.73;;
9138;SDS011;4604;48.616;9.548;2023-11-21T08:25:19;1.53;;;0.90;;
9138;SDS011;4604;48.616;9.548;2023-11-21T08:27:45;1.60;;;0.70;;
9138;SDS011;4604;48.616;9.548;2023-11-21T08:30:12;1.13;;;0.90;;
9138;SDS011;4604;48.616;9.548;2023-11-21T08:32:41;2.27;;;0.60;;
9138;SDS011;4604;48.616;9.548;2023-11-21T08:35:08;0.60;;;0.50;;
9138;SDS011;4604;48.616;9.548;2023-11-21T08:37:35;1.97;;;1.20;;
9138;SDS011;4604;48.616;9.548;2023-11-21T08:40:04;7.27;;;3.93;;
9138;SDS011;4604;48.616;9.548;2023-11-21T08:42:34;7.23;;;3.80;;
9138;SDS011;4604;48.616;9.548;2023-11-21T08:45:00;7.27;;;1.50;;
9138;SDS011;4604;48.616;9.548;2023-11-21T08:47:27;1.70;;;1.47;;
9138;SDS011;4604;48.616;9.548;2023-11-21T08:49:54;1.30;;;1.20;;
9138;SDS011;4604;48.616;9.548;2023-11-21T08:52:20;8.47;;;3.23;;
9138;SDS011;4604;48.616;9.548;2023-11-21T08:54:47;3.87;;;2.60;;
9138;SDS011;4604;48.616;9.548;2023-11-21T08:57:22;6.43;;;4.23;;
9138;SDS011;4604;48.616;9.548;2023-11-21T08:59:48;3.00;;;1.87;;
9138;SDS011;4604;48.616;9.548;2023-11-21T09:02:20;9.10;;;2.93;;
9138;SDS011;4604;48.616;9.548;2023-11-21T09:04:50;3.97;;;1.97;;
9138;SDS011;4604;48.616;9.548;2023-11-21T09:07:17;2.23;;;1.43;;
9138;SDS011;4604;48.616;9.548;2023-11-21T09:09:45;1.00;;;0.90;;
9138;SDS011;4604;48.616;9.548;2023-11-21T09:12:12;0.93;;;0.93;;
9138;SDS011;4604;48.616;9.548;2023-11-21T09:14:40;1.73;;;1.23;;
9138;SDS011;4604;48.616;9.548;2023-11-21T09:17:07;1.60;;;1.50;;
9138;SDS011;4604;48.616;9.548;2023-11-21T09:19:36;3.77;;;2.33;;
9138;SDS011;4604;48.616;9.548;2023-11-21T09:22:03;8.83;;;4.10;;
9138;SDS011;4604;48.616;9.548;2023-11-21T09:24:30;3.37;;;2.20;;
9138;SDS011;4604;48.616;9.548;2023-11-21T09:26:57;7.03;;;2.83;;
9138;SDS011;4604;48.616;9.548;2023-11-21T09:29:25;2.03;;;1.83;;
9138;SDS011;4604;48.616;9.548;2023-11-21T09:31:53;3.43;;;1.97;;
9138;SDS011;4604;48.616;9.548;2023-11-21T09:34:20;3.63;;;1.63;;
9138;SDS011;4604;48.616;9.548;2023-11-21T09:36:47;1.43;;;1.30;;
9138;SDS011;4604;48.616;9.548;2023-11-21T09:39:14;1.63;;;1.33;;
9138;SDS011;4604;48.616;9.548;2023-11-21T09:41:43;2.80;;;1.20;;
9138;SDS011;4604;48.616;9.548;2023-11-21T09:44:13;1.00;;;1.00;;
9138;SDS011;4604;48.616;9.548;2023-11-21T09:46:43;1.73;;;1.20;;
9138;SDS011;4604;48.616;9.548;2023-11-21T09:49:14;1.00;;;0.97;;
9138;SDS011;4604;48.616;9.548;2023-11-21T09:51:44;1.00;;;0.90;;
9138;SDS011;4604;48.616;9.548;2023-11-21T09:54:13;0.60;;;0.60;;
9138;SDS011;4604;48.616;9.548;2023-11-21T09:56:42;2.60;;;2.40;;
9138;SDS011;4604;48.616;9.548;2023-11-21T09:59:10;7.40;;;2.13;;
9138;SDS011;4604;48.616;9.548;2023-11-21T10:01:41;2.90;;;1.70;;
9138;SDS011;4604;48.616;9.548;2023-11-21T10:04:08;3.53;;;2.33;;
9138;SDS011;4604;48.616;9.548;2023-11-21T10:06:38;4.17;;;2.27;;
9138;SDS011;4604;48.616;9.548;2023-11-21T10:09:06;2.53;;;1.73;;
9138;SDS011;4604;48.616;9.548;2023-11-21T10:14:19;1.90;;;1.40;;
9138;SDS011;4604;48.616;9.548;2023-11-21T10:16:51;3.93;;;2.33;;
9138;SDS011;4604;48.616;9.548;2023-11-21T10:19:19;2.13;;;1.87;;
9138;SDS011;4604;48.616;9.548;2023-11-21T10:21:50;1.93;;;1.63;;
9138;SDS011;4604;48.616;9.548;2023-11-21T10:24:22;1.80;;;1.50;;
9138;SDS011;4604;48.616;9.548;2023-11-21T10:26:50;3.07;;;2.00;;
9138;SDS011;4604;48.616;9.548;2023-11-21T10:29:18;2.60;;;1.83;;
9138;SDS011;4604;48.616;9.548;2023-11-21T10:31:48;3.40;;;1.93;;
9138;SDS011;4604;48.616;9.548;2023-11-21T10:34:17;1.97;;;1.50;;
9138;SDS011;4604;48.616;9.548;2023-11-21T10:36:44;2.53;;;1.23;;
9138;SDS011;4604;48.616;9.548;2023-11-21T10:39:14;2.33;;;1.67;;
9138;SDS011;4604;48.616;9.548;2023-11-21T10:41:44;2.37;;;1.40;;
9138;SDS011;4604;48.616;9.548;2023-11-21T10:44:16;2.43;;;1.50;;
9138;SDS011;4604;48.616;9.548;2023-11-21T10:46:49;4.97;;;2.30;;
9138;SDS011;4604;48.616;9.548;2023-11-21T10:49:19;3.10;;;1.70;;
9138;SDS011;4604;48.616;9.548;2023-11-21T10:51:46;3.13;;;1.90;;
9138;SDS011;4604;48.616;9.548;2023-11-21T10:54:18;4.40;;;1.80;;
9138;SDS011;4604;48.616;9.548;2023-11-21T10:56:47;4.47;;;1.77;;
9138;SDS011;4604;48.616;9.548;2023-11-21T10:59:16;2.40;;;1.70;;
9138;SDS011;4604;48.616;9.548;2023-11-21T11:01:50;2.00;;;1.80;;
9138;SDS011;4604;48.616;9.548;2023-11-21T11:04:18;2.67;;;2.17;;
9138;SDS011;4604;48.616;9.548;2023-11-21T11:06:48;3.70;;;2.30;;
9138;SDS011;4604;48.616;9.548;2023-11-21T11:09:23;1.87;;;1.70;;
9138;SDS011;4604;48.616;9.548;2023-11-21T11:11:50;3.07;;;2.10;;
9138;SDS011;4604;48.616;9.548;2023-11-21T11:14:19;3.30;;;2.10;;
9138;SDS011;4604;48.616;9.548;2023-11-21T11:16:50;5.50;;;2.37;;
9138;SDS011;4604;48.616;9.548;2023-11-21T11:19:19;3.03;;;1.90;;
9138;SDS011;4604;48.616;9.548;2023-11-21T11:21:48;4.90;;;2.10;;
9138;SDS011;4604;48.616;9.548;2023-11-21T11:24:33;5.23;;;2.20;;
9138;SDS011;4604;48.616;9.548;2023-11-21T11:27:15;3.30;;;2.30;;
9138;SDS011;4604;48.616;9.548;2023-11-21T11:29:52;3.17;;;2.10;;
9138;SDS011;4604;48.616;9.548;2023-11-21T11:32:33;3.77;;;1.70;;
9138;SDS011;4604;48.616;9.548;2023-11-21T11:35:07;2.03;;;1.57;;
9138;SDS011;4604;48.616;9.548;2023-11-21T11:37:36;2.10;;;1.50;;
9138;SDS011;4604;48.616;9.548;2023-11-21T11:40:08;3.13;;;1.80;;
9138;SDS011;4604;48.616;9.548;2023-11-21T11:42:37;2.50;;;1.47;;
9138;SDS011;4604;48.616;9.548;2023-11-21T11:45:17;1.57;;;1.47;;
9138;SDS011;4604;48.616;9.548;2023-11-21T11:47:45;4.67;;;2.10;;
9138;SDS011;4604;48.616;9.548;2023-11-21T11:50:14;3.37;;;2.43;;
9138;SDS011;4604;48.616;9.548;2023-11-21T11:52:42;2.90;;;1.90;;
9138;SDS011;4604;48.616;9.548;2023-11-21T11:55:11;2.90;;;2.03;;
9138;SDS011;4604;48.616;9.548;2023-11-21T11:57:39;2.20;;;1.93;;
9138;SDS011;4604;48.616;9.548;2023-11-21T12:00:14;2.20;;;1.90;;
9138;SDS011;4604;48.616;9.548;2023-11-21T12:02:42;1.23;;;1.13;;
9138;SDS011;4604;48.616;9.548;2023-11-21T12:05:11;1.43;;;1.30;;
9138;SDS011;4604;48.616;9.548;2023-11-21T12:07:41;1.17;;;1.07;;
9138;SDS011;4604;48.616;9.548;2023-11-21T12:10:12;0.80;;;0.80;;
9138;SDS011;4604;48.616;9.548;2023-11-21T12:12:43;0.80;;;0.80;;
9138;SDS011;4604;48.616;9.548;2023-11-21T12:15:12;1.63;;;1.10;;
9138;SDS011;4604;48.616;9.548;2023-11-21T12:17:39;1.30;;;1.00;;
9138;SDS011;4604;48.616;9.548;2023-11-21T12:20:09;0.70;;;0.70;;
9138;SDS011;4604;48.616;9.548;2023-11-21T12:22:43;4.97;;;1.27;;
9138;SDS011;4604;48.616;9.548;2023-11-21T12:25:14;1.00;;;0.90;;
9138;SDS011;4604;48.616;9.548;2023-11-21T12:27:43;1.43;;;0.83;;
9138;SDS011;4604;48.616;9.548;2023-11-21T12:30:11;1.93;;;1.17;;
9138;SDS011;4604;48.616;9.548;2023-11-21T12:32:40;23.20;;;1.77;;
9138;SDS011;4604;48.616;9.548;2023-11-21T12:35:08;1.27;;;0.97;;
9138;SDS011;4604;48.616;9.548;2023-11-21T12:37:36;1.27;;;0.80;;
9138;SDS011;4604;48.616;9.548;2023-11-21T12:40:03;2.43;;;1.20;;
9138;SDS011;4604;48.616;9.548;2023-11-21T12:42:33;2.10;;;1.80;;
9138;SDS011;4604;48.616;9.548;2023-11-21T12:45:07;2.00;;;1.80;;
9138;SDS011;4604;48.616;9.548;2023-11-21T12:47:39;4.50;;;3.60;;
9138;SDS011;4604;48.616;9.548;2023-11-21T12:50:07;3.30;;;2.27;;
9138;SDS011;4604;48.616;9.548;2023-11-21T12:52:39;1.87;;;1.43;;
9138;SDS011;4604;48.616;9.548;2023-11-21T12:55:13;1.97;;;1.50;;
9138;SDS011;4604;48.616;9.548;2023-11-21T12:57:42;1.73;;;1.63;;
9138;SDS011;4604;48.616;9.548;2023-11-21T13:00:11;1.87;;;1.50;;
9138;SDS011;4604;48.616;9.548;2023-11-21T13:02:51;4.67;;;2.30;;
9138;SDS011;4604;48.616;9.548;2023-11-21T13:05:28;3.10;;;2.00;;
9138;SDS011;4604;48.616;9.548;2023-11-21T13:07:56;2.33;;;1.97;;
9138;SDS011;4604;48.616;9.548;2023-11-21T13:10:25;2.67;;;2.17;;
9138;SDS011;4604;48.616;9.548;2023-11-21T13:12:57;2.83;;;1.93;;
9138;SDS011;4604;48.616;9.548;2023-11-21T13:15:26;1.83;;;1.73;;
9138;SDS011;4604;48.616;9.548;2023-11-21T13:17:56;1.50;;;1.40;;
9138;SDS011;4604;48.616;9.548;2023-11-21T13:20:23;1.70;;;1.60;;
9138;SDS011;4604;48.616;9.548;2023-11-21T13:22:50;3.20;;;2.17;;
9138;SDS011;4604;48.616;9.548;2023-11-21T13:25:22;5.03;;;2.40;;
9138;SDS011;4604;48.616;9.548;2023-11-21T13:27:49;8.57;;;2.30;;
9138;SDS011;4604;48.616;9.548;2023-11-21T13:30:18;3.60;;;2.10;;
9138;SDS011;4604;48.616;9.548;2023-11-21T13:32:48;3.00;;;2.23;;
9138;SDS011;4604;48.616;9.548;2023-11-21T13:35:16;2.67;;;2.20;;
9138;SDS011;4604;48.616;9.548;2023-11-21T13:37:47;2.17;;;1.97;;
9138;SDS011;4604;48.616;9.548;2023-11-21T13:40:16;3.53;;;1.80;;
9138;SDS011;4604;48.616;9.548;2023-11-21T13:42:52;2.13;;;1.77;;
9138;SDS011;4604;48.616;9.548;2023-11-21T13:45:25;2.70;;;1.97;;
9138;SDS011;4604;48.616;9.548;2023-11-21T13:47:53;1.60;;;1.40;;
9138;SDS011;4604;48.616;9.548;2023-11-21T13:50:23;2.13;;;1.80;;
9138;SDS011;4604;48.616;9.548;2023-11-21T13:52:54;2.00;;;1.70;;
9138;SDS011;4604;48.616;9.548;2023-11-21T13:55:21;2.43;;;1.53;;
9138;SDS011;4604;48.616;9.548;2023-11-21T13:57:50;2.57;;;1.90;;
9138;SDS011;4604;48.616;9.548;2023-11-21T14:00:17;1.50;;;1.30;;
9138;SDS011;4604;48.616;9.548;2023-11-21T14:03:10;3.90;;;1.80;;
9138;SDS011;4604;48.616;9.548;2023-11-21T14:05:45;3.40;;;1.60;;
9138;SDS011;4604;48.616;9.548;2023-11-21T14:08:16;8.50;;;2.00;;
9138;SDS011;4604;48.616;9.548;2023-11-21T14:10:45;8.27;;;2.03;;
9138;SDS011;4604;48.616;9.548;2023-11-21T14:13:15;4.90;;;2.00;;
9138;SDS011;4604;48.616;9.548;2023-11-21T14:15:42;4.00;;;1.70;;
9138;SDS011;4604;48.616;9.548;2023-11-21T14:18:12;10.33;;;2.70;;
9138;SDS011;4604;48.616;9.548;2023-11-21T14:20:42;2.30;;;2.00;;
9138;SDS011;4604;48.616;9.548;2023-11-21T14:23:09;4.63;;;2.20;;
9138;SDS011;4604;48.616;9.548;2023-11-21T14:25:36;8.73;;;2.47;;
9138;SDS011;4604;48.616;9.548;2023-11-21T14:28:04;2.77;;;1.80;;
9138;SDS011;4604;48.616;9.548;2023-11-21T14:30:31;1.70;;;1.60;;
9138;SDS011;4604;48.616;9.548;2023-11-21T14:33:01;3.33;;;2.17;;
9138;SDS011;4604;48.616;9.548;2023-11-21T14:35:29;10.07;;;3.50;;
9138;SDS011;4604;48.616;9.548;2023-11-21T14:37:57;6.13;;;3.10;;
9138;SDS011;4604;48.616;9.548;2023-11-21T14:40:25;7.13;;;4.40;;
9138;SDS011;4604;48.616;9.548;2023-11-21T14:42:57;6.37;;;4.07;;
9138;SDS011;4604;48.616;9.548;2023-11-21T14:45:24;3.23;;;2.07;;
9138;SDS011;4604;48.616;9.548;2023-11-21T14:47:52;4.20;;;2.97;;
9138;SDS011;4604;48.616;9.548;2023-11-21T14:50:27;3.57;;;2.50;;
9138;SDS011;4604;48.616;9.548;2023-11-21T14:53:18;3.90;;;2.83;;
9138;SDS011;4604;48.616;9.548;2023-11-21T14:56:04;5.20;;;3.63;;
9138;SDS011;4604;48.616;9.548;2023-11-21T14:58:34;7.43;;;4.83;;
9138;SDS011;4604;48.616;9.548;2023-11-21T15:01:04;6.60;;;4.30;;
9138;SDS011;4604;48.616;9.548;2023-11-21T15:03:33;8.17;;;3.60;;
9138;SDS011;4604;48.616;9.548;2023-11-21T15:06:14;5.17;;;3.47;;
9138;SDS011;4604;48.616;9.548;2023-11-21T15:08:58;10.53;;;5.70;;
9138;SDS011;4604;48.616;9.548;2023-11-21T15:11:44;4.33;;;3.20;;
9138;SDS011;4604;48.616;9.548;2023-11-21T15:14:12;3.60;;;2.67;;
9138;SDS011;4604;48.616;9.548;2023-11-21T15:16:45;4.77;;;2.87;;
9138;SDS011;4604;48.616;9.548;2023-11-21T15:19:18;4.60;;;2.50;;
9138;SDS011;4604;48.616;9.548;2023-11-21T15:21:50;2.00;;;1.80;;
9138;SDS011;4604;48.616;9.548;2023-11-21T15:24:18;2.90;;;2.00;;
9138;SDS011;4604;48.616;9.548;2023-11-21T15:26:45;4.63;;;1.70;;
9138;SDS011;4604;48.616;9.548;2023-11-21T15:29:11;3.37;;;2.10;;